Time;durP1;ratioP1;P1;durP2;ratioP2;P2;SDS_P1;SDS_P2;PMS_P1;PMS_P2;Temp;Humidity;BMP_temperature;BMP_pressure;BME280_temperature;BME280_humidity;BME280_pressure;Samples;Min_cycle;Max_cycle;Signal;HPM_P1;HPM_P2
2023/06/15 00:02:45;;;;;;;2.97;2.67;;;17.70;73.20;;;;;;10218320;28;20306;-71
2023/06/15 00:07:45;;;;;;;4.90;2.90;;;17.60;73.20;;;;;;10222354;28;20234;-71
2023/06/15 00:12:46;;;;;;;5.50;2.80;;;17.60;73.30;;;;;;10231367;28;20220;-71
2023/06/15 00:17:47;;;;;;;6.43;3.03;;;17.60;73.60;;;;;;10228985;28;20216;-70
2023/06/15 00:22:49;;;;;;;3.40;2.70;;;17.50;74.30;;;;;;10221028;28;20239;-71
2023/06/15 00:27:50;;;;;;;5.60;2.90;;;17.40;75.10;;;;;;10228476;28;20232;-71
2023/06/15 00:32:50;;;;;;;6.50;3.23;;;17.30;75.10;;;;;;10220763;28;20229;-71
2023/06/15 00:37:51;;;;;;;5.00;2.97;;;17.20;76.60;;;;;;10220932;28;20243;-71
2023/06/15 00:42:51;;;;;;;5.87;3.17;;;17.10;77.00;;;;;;10228147;28;20304;-71
2023/06/15 00:47:55;;;;;;;5.43;3.47;;;17.10;77.50;;;;;;10218180;28;21005;-71
2023/06/15 00:53:05;;;;;;;6.03;3.80;;;17.00;77.30;;;;;;10220177;28;20239;-71
2023/06/15 00:58:06;;;;;;;5.00;3.53;;;16.90;77.80;;;;;;10224307;28;20720;-72
2023/06/15 01:03:06;;;;;;;6.93;3.30;;;17.00;78.10;;;;;;10229354;28;20368;-71
2023/06/15 01:08:08;;;;;;;6.07;3.40;;;16.80;78.20;;;;;;10231175;28;20227;-71
2023/06/15 01:13:12;;;;;;;3.00;2.70;;;16.80;78.30;;;;;;10217582;28;20219;-71
2023/06/15 01:18:20;;;;;;;6.07;2.73;;;16.80;78.00;;;;;;10223066;28;20276;-71
2023/06/15 01:23:50;;;;;;;4.03;2.70;;;16.90;77.70;;;;;;10221306;28;20749;-71
2023/06/15 01:28:52;;;;;;;6.30;3.73;;;16.80;77.90;;;;;;10219874;28;20238;-71
2023/06/15 01:33:56;;;;;;;4.50;3.13;;;16.80;79.00;;;;;;10219099;28;20278;-70
2023/06/15 01:38:59;;;;;;;5.73;3.40;;;16.80;79.70;;;;;;10219408;28;20227;-71
2023/06/15 01:43:59;;;;;;;7.17;3.33;;;16.60;80.10;;;;;;10218054;28;20263;-71
2023/06/15 01:49:01;;;;;;;4.23;3.17;;;16.50;80.60;;;;;;10227130;28;20315;-71
2023/06/15 01:54:01;;;;;;;5.10;3.10;;;16.40;81.10;;;;;;10222783;28;20227;-71
2023/06/15 01:59:02;;;;;;;3.00;2.70;;;16.40;81.60;;;;;;10214485;28;20286;-71
2023/06/15 02:04:06;;;;;;;3.27;2.80;;;16.30;82.20;;;;;;10220178;28;20235;-71
2023/06/15 02:09:06;;;;;;;7.67;3.20;;;16.10;83.10;;;;;;10220339;28;20222;-71
2023/06/15 02:14:09;;;;;;;4.90;3.20;;;16.10;83.70;;;;;;10228584;28;20235;-71
2023/06/15 02:19:10;;;;;;;6.40;3.00;;;16.00;84.90;;;;;;10219348;28;20280;-71
2023/06/15 02:24:10;;;;;;;4.63;3.10;;;16.00;84.40;;;;;;10221862;28;20301;-71
2023/06/15 02:29:11;;;;;;;3.30;3.00;;;15.90;84.80;;;;;;10220725;28;20227;-71
2023/06/15 02:34:11;;;;;;;3.63;3.03;;;15.80;86.30;;;;;;10221536;28;20234;-71
2023/06/15 02:39:12;;;;;;;4.53;3.23;;;15.80;85.80;;;;;;10228349;28;20339;-72
2023/06/15 02:44:16;;;;;;;3.17;2.87;;;15.80;86.10;;;;;;10221161;28;20235;-71
2023/06/15 02:49:18;;;;;;;3.90;3.20;;;15.80;86.40;;;;;;10221938;28;20262;-71
2023/06/15 02:54:19;;;;;;;6.23;3.53;;;15.70;86.80;;;;;;10227694;28;20273;-71
2023/06/15 02:59:25;;;;;;;6.30;3.03;;;15.60;87.40;;;;;;10220579;28;20276;-71
2023/06/15 03:04:27;;;;;;;6.70;3.40;;;15.60;87.70;;;;;;10223522;28;20227;-71
2023/06/15 03:09:30;;;;;;;3.60;3.30;;;15.60;88.00;;;;;;10221042;28;20228;-71
2023/06/15 03:14:31;;;;;;;6.93;3.37;;;15.60;88.30;;;;;;10226441;28;20231;-70
2023/06/15 03:19:32;;;;;;;3.97;3.10;;;15.60;88.60;;;;;;10221837;28;20223;-70
2023/06/15 03:24:32;;;;;;;4.97;3.30;;;15.60;88.80;;;;;;10216772;28;20282;-71
2023/06/15 03:29:36;;;;;;;5.53;3.20;;;15.60;89.10;;;;;;10221111;28;20699;-71
2023/06/15 03:34:40;;;;;;;7.10;4.07;;;15.50;89.30;;;;;;10222773;28;20235;-71
2023/06/15 03:39:40;;;;;;;8.57;4.70;;;15.50;89.40;;;;;;10221420;28;20321;-70
2023/06/15 03:44:41;;;;;;;13.30;6.27;;;15.60;89.50;;;;;;10222687;28;20327;-71
2023/06/15 03:49:42;;;;;;;4.77;3.50;;;15.70;89.50;;;;;;10221327;28;20702;-71
2023/06/15 03:54:42;;;;;;;5.50;3.30;;;15.70;89.30;;;;;;10226429;28;20266;-70
2023/06/15 03:59:43;;;;;;;5.03;3.40;;;15.60;89.40;;;;;;10224540;28;20298;-70
2023/06/15 04:04:43;;;;;;;3.57;3.10;;;15.50;90.00;;;;;;10230409;28;20219;-71
2023/06/15 04:09:44;;;;;;;4.80;3.23;;;15.50;90.20;;;;;;10217748;28;20239;-70
2023/06/15 04:14:45;;;;;;;6.93;3.47;;;15.60;90.10;;;;;;10228941;28;20220;-70
2023/06/15 04:19:46;;;;;;;4.63;3.33;;;15.80;90.00;;;;;;10225599;28;20224;-71
2023/06/15 04:24:46;;;;;;;3.70;3.40;;;15.80;89.80;;;;;;10229013;28;20235;-71
2023/06/15 04:29:49;;;;;;;3.33;3.03;;;15.90;89.40;;;;;;10220238;28;20639;-70
2023/06/15 04:34:54;;;;;;;7.33;3.30;;;16.00;89.30;;;;;;10229176;28;20617;-71
2023/06/15 04:39:59;;;;;;;8.53;3.53;;;16.40;88.80;;;;;;10225476;28;20690;-71
2023/06/15 04:44:59;;;;;;;4.23;3.47;;;16.80;86.50;;;;;;10231303;28;20704;-72
2023/06/15 04:50:00;;;;;;;6.23;3.60;;;16.70;86.40;;;;;;10219754;28;20228;-71
2023/06/15 04:55:00;;;;;;;4.37;3.47;;;16.60;87.30;;;;;;10224462;28;20310;-71
2023/06/15 05:00:01;;;;;;;7.33;3.20;;;16.80;87.00;;;;;;10228724;28;20615;-71
2023/06/15 05:05:02;;;;;;;3.67;3.37;;;17.00;86.30;;;;;;10230584;28;20227;-71
2023/06/15 05:10:03;;;;;;;7.13;3.03;;;19.00;81.30;;;;;;10229525;28;20226;-70
2023/06/15 05:15:04;;;;;;;3.23;2.97;;;21.50;70.50;;;;;;10217812;28;20282;-72
2023/06/15 05:20:08;;;;;;;6.23;2.63;;;22.60;65.60;;;;;;10221650;28;20277;-71
2023/06/15 05:25:09;;;;;;;3.43;3.10;;;23.20;62.60;;;;;;10216691;28;20220;-71
2023/06/15 05:30:11;;;;;;;8.77;4.27;;;23.50;61.20;;;;;;10215331;28;20215;-72
2023/06/15 05:35:12;;;;;;;5.60;3.00;;;24.10;59.80;;;;;;10222393;28;20686;-71
2023/06/15 05:40:13;;;;;;;4.97;2.70;;;24.50;57.70;;;;;;10214462;28;20212;-71
2023/06/15 05:45:14;;;;;;;3.50;2.63;;;25.20;56.90;;;;;;10213980;28;20212;-71
2023/06/15 05:50:15;;;;;;;3.20;2.87;;;25.60;56.00;;;;;;10222109;28;20188;-71
2023/06/15 05:55:16;;;;;;;5.00;3.00;;;25.70;55.60;;;;;;10223147;28;20189;-71
2023/06/15 06:00:17;;;;;;;5.97;2.80;;;25.80;54.90;;;;;;10221784;28;20242;-72
2023/06/15 06:05:18;;;;;;;5.93;3.20;;;26.10;54.20;;;;;;10229385;28;20215;-72
2023/06/15 06:10:19;;;;;;;8.97;4.27;;;26.00;54.50;;;;;;10230591;28;20195;-72
2023/06/15 06:15:20;;;;;;;7.90;3.33;;;27.00;52.90;;;;;;10214930;28;20297;-71
2023/06/15 06:20:23;;;;;;;10.37;3.60;;;27.60;51.90;;;;;;10214555;28;20888;-71
2023/06/15 06:25:23;;;;;;;6.77;3.87;;;27.90;50.60;;;;;;10214287;28;20191;-71
2023/06/15 06:30:24;;;;;;;8.43;2.83;;;27.80;50.80;;;;;;10235033;28;20223;-72
2023/06/15 06:35:24;;;;;;;3.17;2.83;;;27.80;50.70;;;;;;10214636;28;20215;-71
2023/06/15 06:40:29;;;;;;;4.43;3.10;;;28.20;50.10;;;;;;10221039;28;20323;-72
2023/06/15 06:45:29;;;;;;;5.77;3.43;;;29.10;49.40;;;;;;10222549;28;20242;-72
2023/06/15 06:50:30;;;;;;;5.33;3.10;;;29.60;47.80;;;;;;10230543;28;20584;-72
2023/06/15 06:55:31;;;;;;;5.73;3.53;;;30.30;47.00;;;;;;10234539;28;20230;-71
2023/06/15 07:00:32;;;;;;;4.77;3.13;;;30.90;45.80;;;;;;10233337;28;20284;-71
2023/06/15 07:05:32;;;;;;;4.67;3.10;;;30.80;45.40;;;;;;10229281;28;20691;-71
2023/06/15 07:10:33;;;;;;;4.27;3.37;;;30.90;45.50;;;;;;10210803;28;20231;-71
2023/06/15 07:15:33;;;;;;;4.33;3.10;;;31.70;44.10;;;;;;10227319;28;20563;-72
2023/06/15 07:20:38;;;;;;;7.17;3.77;;;31.30;44.40;;;;;;10226708;28;20989;-71
2023/06/15 07:25:38;;;;;;;5.53;3.30;;;32.50;43.20;;;;;;10232475;28;20251;-72
2023/06/15 07:30:39;;;;;;;3.17;2.87;;;32.10;43.30;;;;;;10221814;28;20278;-71
2023/06/15 07:35:40;;;;;;;5.37;2.80;;;31.80;44.00;;;;;;10227256;28;20639;-71
2023/06/15 07:40:43;;;;;;;11.03;3.43;;;31.50;43.70;;;;;;10231945;28;20231;-74
2023/06/15 07:45:45;;;;;;;4.17;3.10;;;31.70;43.90;;;;;;10222264;28;20232;-71
2023/06/15 07:50:50;;;;;;;5.77;2.90;;;31.90;43.50;;;;;;10214425;28;20219;-72
2023/06/15 07:55:50;;;;;;;4.97;2.53;;;32.20;43.30;;;;;;10228803;28;20611;-72
2023/06/15 08:00:51;;;;;;;4.00;2.80;;;32.70;42.90;;;;;;10229451;28;20250;-72
2023/06/15 08:05:51;;;;;;;5.93;2.60;;;32.90;41.70;;;;;;10223506;28;20223;-72
2023/06/15 08:10:52;;;;;;;7.47;2.60;;;33.00;41.50;;;;;;10226023;28;20618;-72
2023/06/15 08:15:52;;;;;;;6.27;2.90;;;33.50;40.40;;;;;;10220841;28;20279;-72
2023/06/15 08:20:53;;;;;;;3.90;2.90;;;33.90;40.10;;;;;;10227036;28;20576;-72
2023/06/15 08:25:54;;;;;;;2.63;2.33;;;35.40;38.70;;;;;;10225012;28;20860;-72
2023/06/15 08:30:54;;;;;;;9.67;2.67;;;35.50;37.60;;;;;;10220420;28;20761;-72
2023/06/15 08:35:56;;;;;;;4.10;2.47;;;35.00;36.40;;;;;;10221832;28;20232;-71
2023/06/15 08:41:00;;;;;;;2.80;2.60;;;34.80;36.20;;;;;;10224221;28;20236;-72
2023/06/15 08:46:03;;;;;;;5.30;2.50;;;34.90;35.00;;;;;;10229080;28;20912;-71
2023/06/15 08:51:06;;;;;;;6.20;3.00;;;34.20;36.80;;;;;;10224536;28;20590;-71
2023/06/15 08:56:13;;;;;;;3.30;3.00;;;34.10;35.70;;;;;;10226637;28;20224;-71
2023/06/15 09:01:15;;;;;;;3.00;2.80;;;33.50;34.80;;;;;;10225225;28;20246;-72
2023/06/15 09:06:15;;;;;;;3.17;2.50;;;35.70;34.50;;;;;;10224883;28;20272;-72
2023/06/15 09:11:17;;;;;;;3.47;2.80;;;38.40;33.00;;;;;;10224622;28;20579;-71
2023/06/15 09:16:18;;;;;;;3.00;2.70;;;36.90;32.70;;;;;;10218073;28;20252;-70
2023/06/15 09:21:22;;;;;;;3.63;2.73;;;35.60;34.30;;;;;;10225536;28;20236;-72
2023/06/15 09:26:27;;;;;;;4.27;3.23;;;35.80;35.00;;;;;;10230049;28;20237;-71
2023/06/15 09:31:35;;;;;;;8.63;2.63;;;35.80;34.10;;;;;;10216009;28;20699;-71
2023/06/15 09:36:44;;;;;;;4.37;2.50;;;35.70;34.70;;;;;;10223028;28;20224;-72
2023/06/15 09:41:56;;;;;;;3.00;2.63;;;37.20;33.00;;;;;;10219660;28;20839;-72
2023/06/15 09:46:59;;;;;;;3.20;2.27;;;36.70;32.70;;;;;;10215075;28;20239;-72
2023/06/15 09:52:00;;;;;;;4.00;2.40;;;36.70;32.40;;;;;;10229942;28;20297;-71
2023/06/15 09:57:02;;;;;;;2.97;2.73;;;37.80;32.00;;;;;;10229499;28;20215;-73
2023/06/15 10:02:07;;;;;;;4.10;2.60;;;38.90;30.90;;;;;;10223650;28;20272;-71
2023/06/15 10:07:13;;;;;;;4.63;2.60;;;37.50;31.40;;;;;;10215637;28;20354;-72
2023/06/15 10:12:20;;;;;;;3.77;3.10;;;38.80;30.70;;;;;;10228492;28;20326;-72
2023/06/15 10:17:30;;;;;;;3.87;2.63;;;39.30;30.10;;;;;;10215038;28;20238;-73
2023/06/15 10:22:31;;;;;;;3.67;2.87;;;37.40;30.00;;;;;;10223784;28;20233;-72
2023/06/15 10:27:32;;;;;;;6.67;2.80;;;36.70;31.80;;;;;;10225294;28;20230;-72
2023/06/15 10:32:46;;;;;;;4.83;2.80;;;36.80;31.50;;;;;;10223634;28;20262;-71
2023/06/15 10:38:06;;;;;;;2.67;2.47;;;36.40;32.80;;;;;;10230280;28;20738;-73
2023/06/15 10:43:07;;;;;;;4.03;2.90;;;35.40;32.70;;;;;;10229520;28;20231;-72
2023/06/15 10:48:07;;;;;;;6.60;2.97;;;35.70;33.50;;;;;;10223589;28;20244;-72
2023/06/15 10:53:36;;;;;;;9.87;2.73;;;36.80;32.60;;;;;;10228513;28;20269;-71
2023/06/15 10:58:52;;;;;;;5.60;2.73;;;35.40;32.70;;;;;;10225242;28;20588;-72
2023/06/15 11:03:54;;;;;;;7.53;2.90;;;34.60;34.50;;;;;;10235098;28;20223;-71
2023/06/15 11:09:02;;;;;;;3.30;2.90;;;36.30;32.30;;;;;;10224393;28;20307;-72
2023/06/15 11:14:04;;;;;;;4.63;2.80;;;35.70;33.40;;;;;;10234269;28;20223;-72
2023/06/15 11:19:11;;;;;;;3.17;2.53;;;36.10;31.80;;;;;;10222729;28;20230;-72
2023/06/15 11:24:13;;;;;;;5.53;2.67;;;38.90;29.70;;;;;;10220663;28;20785;-72
2023/06/15 11:29:22;;;;;;;7.67;3.07;;;39.50;28.40;;;;;;10227219;28;20645;-72
2023/06/15 11:34:22;;;;;;;4.90;2.50;;;39.70;29.30;;;;;;10219928;28;20224;-71
2023/06/15 11:39:24;;;;;;;7.17;2.90;;;37.80;29.40;;;;;;10226568;28;20219;-72
2023/06/15 11:44:28;;;;;;;5.13;3.20;;;34.60;33.60;;;;;;10220985;28;20236;-71
2023/06/15 11:49:34;;;;;;;6.67;3.00;;;31.80;37.00;;;;;;10233519;28;20242;-71
2023/06/15 11:54:35;;;;;;;3.13;2.70;;;30.80;38.30;;;;;;10221393;28;20949;-70
2023/06/15 11:59:38;;;;;;;3.30;3.00;;;31.30;38.50;;;;;;10225454;28;20302;-71
2023/06/15 12:04:38;;;;;;;5.47;2.73;;;32.10;37.10;;;;;;10228722;28;20735;-71
2023/06/15 12:09:39;;;;;;;4.73;2.63;;;31.20;37.10;;;;;;10230590;28;20250;-70
2023/06/15 12:14:43;;;;;;;4.67;2.70;;;30.10;37.80;;;;;;10221403;28;20424;-70
2023/06/15 12:19:43;;;;;;;6.57;3.10;;;29.80;39.70;;;;;;10221505;28;20226;-72
2023/06/15 12:24:48;;;;;;;6.93;2.87;;;29.60;40.40;;;;;;10229475;28;20231;-72
2023/06/15 12:29:51;;;;;;;4.80;3.07;;;29.90;39.60;;;;;;10231962;28;20931;-72
2023/06/15 12:34:52;;;;;;;4.87;2.77;;;28.90;39.80;;;;;;10224256;28;20227;-72
2023/06/15 12:39:53;;;;;;;4.40;2.60;;;28.90;39.30;;;;;;10223559;28;20922;-72
2023/06/15 12:44:53;;;;;;;4.87;2.87;;;29.40;39.90;;;;;;10215584;28;20305;-70
2023/06/15 12:49:55;;;;;;;3.67;3.27;;;29.80;38.60;;;;;;10227311;28;20231;-70
2023/06/15 12:54:55;;;;;;;4.93;2.50;;;29.80;39.30;;;;;;10225342;28;20224;-72
2023/06/15 12:59:56;;;;;;;8.40;2.80;;;29.60;38.10;;;;;;10233194;28;20232;-71
2023/06/15 13:05:02;;;;;;;5.50;3.00;;;29.30;38.30;;;;;;10222061;28;20729;-70
2023/06/15 13:10:04;;;;;;;5.87;2.80;;;29.20;38.30;;;;;;10216752;28;20280;-70
2023/06/15 13:15:06;;;;;;;3.90;2.93;;;29.00;39.00;;;;;;10225804;28;20219;-70
2023/06/15 13:20:08;;;;;;;3.90;2.90;;;29.00;39.80;;;;;;10250182;28;20307;-72
2023/06/15 13:25:09;;;;;;;8.17;3.07;;;29.20;39.60;;;;;;10223932;28;20272;-71
2023/06/15 13:30:12;;;;;;;4.87;2.90;;;29.40;38.80;;;;;;10221480;28;20659;-72
2023/06/15 13:35:13;;;;;;;5.23;2.77;;;29.40;38.70;;;;;;10218488;28;20188;-71
2023/06/15 13:40:14;;;;;;;6.80;3.30;;;29.20;38.80;;;;;;10223607;28;20187;-72
2023/06/15 13:45:16;;;;;;;4.17;3.13;;;29.00;38.40;;;;;;10231744;28;20261;-71
2023/06/15 13:50:18;;;;;;;6.97;2.87;;;28.60;39.70;;;;;;10223524;28;20863;-72
2023/06/15 13:55:19;;;;;;;4.83;3.37;;;28.40;38.70;;;;;;10223976;28;20656;-71
2023/06/15 14:00:20;;;;;;;6.80;2.80;;;28.20;39.30;;;;;;10224121;28;20175;-71
2023/06/15 14:05:20;;;;;;;12.93;3.60;;;28.00;39.20;;;;;;10221181;28;20192;-71
2023/06/15 14:10:21;;;;;;;4.40;3.30;;;28.00;39.20;;;;;;10223990;28;20179;-71
2023/06/15 14:15:22;;;;;;;4.47;3.30;;;27.70;39.80;;;;;;10216317;28;20199;-71
2023/06/15 14:20:22;;;;;;;3.70;2.87;;;27.60;39.20;;;;;;10229655;28;20271;-71
2023/06/15 14:25:23;;;;;;;6.40;3.23;;;28.10;38.80;;;;;;10223055;28;20187;-71
2023/06/15 14:30:23;;;;;;;10.40;3.30;;;28.50;38.50;;;;;;10228835;28;20191;-71
2023/06/15 14:35:25;;;;;;;3.50;2.70;;;28.90;37.80;;;;;;10215584;28;20256;-71
2023/06/15 14:40:26;;;;;;;4.50;3.27;;;28.90;37.80;;;;;;10224100;28;20207;-71
2023/06/15 14:45:27;;;;;;;6.53;3.30;;;28.80;37.10;;;;;;10228557;28;20261;-71
2023/06/15 14:50:27;;;;;;;3.10;2.80;;;28.90;37.40;;;;;;10229480;28;20230;-71
2023/06/15 14:55:28;;;;;;;3.83;2.97;;;28.90;36.90;;;;;;10226764;28;20183;-71
2023/06/15 15:00:28;;;;;;;7.70;2.83;;;28.70;37.30;;;;;;10220424;28;20941;-70
2023/06/15 15:05:30;;;;;;;3.27;2.93;;;28.50;37.90;;;;;;10219555;28;20309;-71
2023/06/15 15:10:31;;;;;;;5.43;2.77;;;28.40;38.20;;;;;;10214264;28;20223;-70
2023/06/15 15:15:31;;;;;;;9.60;2.90;;;28.20;38.40;;;;;;10226732;28;20567;-70
2023/06/15 15:20:32;;;;;;;6.07;3.50;;;27.60;38.90;;;;;;10233241;28;20223;-70
2023/06/15 15:25:32;;;;;;;8.13;3.50;;;27.10;40.10;;;;;;10221616;28;20269;-71
2023/06/15 15:30:33;;;;;;;4.17;3.17;;;27.30;40.50;;;;;;10226451;28;20219;-70
2023/06/15 15:35:37;;;;;;;4.40;2.90;;;27.30;40.00;;;;;;10220542;28;20232;-71
2023/06/15 15:40:38;;;;;;;5.90;3.67;;;27.20;40.10;;;;;;10225625;28;20227;-71
2023/06/15 15:45:39;;;;;;;5.53;3.00;;;27.10;40.40;;;;;;10226716;28;20238;-71
2023/06/15 15:50:39;;;;;;;6.63;3.13;;;27.10;40.60;;;;;;10232552;28;20218;-71
2023/06/15 15:55:40;;;;;;;4.10;3.50;;;27.30;40.10;;;;;;10222108;28;20619;-70
2023/06/15 16:00:40;;;;;;;4.83;3.23;;;27.30;39.60;;;;;;10224866;28;20227;-71
2023/06/15 16:05:41;;;;;;;8.37;3.40;;;27.10;38.90;;;;;;10232393;28;20893;-72
2023/06/15 16:10:41;;;;;;;3.17;2.87;;;27.10;38.30;;;;;;10229425;28;20302;-71
2023/06/15 16:15:42;;;;;;;4.43;3.40;;;26.90;38.70;;;;;;10221963;28;20230;-71
2023/06/15 16:20:42;;;;;;;4.43;3.43;;;26.90;38.80;;;;;;10230704;28;20231;-71
2023/06/15 16:25:43;;;;;;;5.23;3.20;;;26.60;38.10;;;;;;10220173;28;20265;-72
2023/06/15 16:30:44;;;;;;;6.07;3.00;;;26.60;37.70;;;;;;10228379;28;20226;-69
2023/06/15 16:35:45;;;;;;;4.30;3.10;;;26.70;40.10;;;;;;10231261;28;20755;-68
2023/06/15 16:40:47;;;;;;;3.97;2.97;;;26.50;38.40;;;;;;10229739;28;20749;-69
2023/06/15 16:45:48;;;;;;;4.93;3.60;;;26.60;38.10;;;;;;10228869;28;20888;-69
2023/06/15 16:50:48;;;;;;;8.10;3.83;;;26.60;39.10;;;;;;10223373;28;20212;-68
2023/06/15 16:55:49;;;;;;;6.50;3.63;;;26.40;39.60;;;;;;10229168;28;20264;-72
2023/06/15 17:00:50;;;;;;;8.00;3.57;;;26.20;38.80;;;;;;10229849;28;20349;-68
2023/06/15 17:05:51;;;;;;;7.40;3.87;;;26.20;40.10;;;;;;10225693;28;20230;-70
2023/06/15 17:10:51;;;;;;;6.27;3.13;;;26.20;40.10;;;;;;10220434;28;20192;-70
2023/06/15 17:15:52;;;;;;;8.07;3.60;;;26.30;39.30;;;;;;10221492;28;20231;-70
2023/06/15 17:20:52;;;;;;;8.73;3.50;;;26.40;39.80;;;;;;10222681;28;20235;-70
2023/06/15 17:25:53;;;;;;;4.87;3.50;;;26.40;40.00;;;;;;10219599;28;20288;-69
2023/06/15 17:30:53;;;;;;;4.83;3.53;;;26.20;40.40;;;;;;10220367;28;20220;-68
2023/06/15 17:35:54;;;;;;;5.20;3.20;;;26.00;40.70;;;;;;10216339;28;20224;-70
2023/06/15 17:40:55;;;;;;;7.63;3.63;;;25.90;40.50;;;;;;10219085;28;20581;-70
2023/06/15 17:45:55;;;;;;;5.63;3.20;;;25.80;41.90;;;;;;10228857;28;20280;-68
2023/06/15 17:50:56;;;;;;;8.17;3.50;;;25.70;42.30;;;;;;10224785;28;20261;-69
2023/06/15 17:56:00;;;;;;;4.90;3.50;;;25.60;42.90;;;;;;10216728;28;20219;-68
2023/06/15 18:01:01;;;;;;;11.20;3.93;;;25.40;43.60;;;;;;10222443;28;20227;-69
2023/06/15 18:06:02;;;;;;;7.07;3.70;;;25.30;44.00;;;;;;10217465;28;20297;-68
2023/06/15 18:11:02;;;;;;;4.83;3.50;;;25.20;43.80;;;;;;10225557;28;20246;-68
2023/06/15 18:16:04;;;;;;;5.13;3.50;;;25.00;44.10;;;;;;10221925;28;20223;-68
2023/06/15 18:21:05;;;;;;;8.17;3.77;;;25.00;44.50;;;;;;10216879;28;20274;-68
2023/06/15 18:26:05;;;;;;;6.10;3.87;;;25.00;45.10;;;;;;10213663;28;20847;-68
2023/06/15 18:31:06;;;;;;;5.03;4.00;;;24.90;45.30;;;;;;10213996;28;20255;-68
2023/06/15 18:36:06;;;;;;;9.30;4.20;;;24.80;45.70;;;;;;10221466;28;20315;-68
2023/06/15 18:41:07;;;;;;;9.47;4.10;;;24.70;45.90;;;;;;10226829;28;20647;-69
2023/06/15 18:46:08;;;;;;;7.20;4.30;;;24.60;46.60;;;;;;10222092;28;20248;-66
2023/06/15 18:51:08;;;;;;;7.77;4.17;;;24.40;47.00;;;;;;10233961;28;20223;-67
2023/06/15 18:56:09;;;;;;;6.33;3.87;;;24.30;47.60;;;;;;10222567;28;20687;-68
2023/06/15 19:01:09;;;;;;;6.07;3.77;;;24.20;47.90;;;;;;10227578;28;20728;-68
2023/06/15 19:06:10;;;;;;;4.53;3.70;;;24.00;48.00;;;;;;10233539;28;20253;-66
2023/06/15 19:11:12;;;;;;;7.03;4.50;;;23.90;48.40;;;;;;10221511;28;20288;-69
2023/06/15 19:16:12;;;;;;;10.43;4.20;;;23.70;48.50;;;;;;10224112;28;20234;-69
2023/06/15 19:21:13;;;;;;;5.80;3.90;;;23.70;48.70;;;;;;10227104;28;20240;-68
2023/06/15 19:26:14;;;;;;;5.70;4.27;;;23.60;49.10;;;;;;10220012;28;20331;-69
2023/06/15 19:31:15;;;;;;;7.43;4.20;;;23.50;49.40;;;;;;10227035;28;20698;-69
2023/06/15 19:36:15;;;;;;;7.20;4.20;;;23.40;49.70;;;;;;10219447;28;20316;-66
2023/06/15 19:41:19;;;;;;;6.03;3.93;;;23.40;49.80;;;;;;10227019;28;20212;-67
2023/06/15 19:46:20;;;;;;;5.53;4.10;;;23.40;49.60;;;;;;10226666;28;20230;-67
2023/06/15 19:51:20;;;;;;;8.17;5.47;;;23.40;49.80;;;;;;10228162;28;20532;-67
2023/06/15 19:56:22;;;;;;;8.63;4.33;;;23.40;49.70;;;;;;10234683;28;20756;-67
2023/06/15 20:01:22;;;;;;;7.33;3.93;;;23.40;49.50;;;;;;10226517;28;20684;-67
2023/06/15 20:06:23;;;;;;;4.83;4.03;;;23.40;49.70;;;;;;10237458;28;20302;-66
2023/06/15 20:11:24;;;;;;;7.07;4.57;;;23.40;49.90;;;;;;10220460;28;20224;-70
2023/06/15 20:16:25;;;;;;;5.30;3.93;;;23.40;49.70;;;;;;10231604;28;20222;-69
2023/06/15 20:21:28;;;;;;;4.03;3.63;;;23.30;49.70;;;;;;10225512;28;20231;-68
2023/06/15 20:26:30;;;;;;;6.60;3.93;;;23.30;50.00;;;;;;10221274;28;20301;-69
2023/06/15 20:31:31;;;;;;;5.80;4.07;;;23.30;50.10;;;;;;10226048;28;20227;-68
2023/06/15 20:36:33;;;;;;;6.77;4.07;;;23.20;50.40;;;;;;10225904;28;20730;-69
2023/06/15 20:41:34;;;;;;;5.53;3.87;;;23.20;50.60;;;;;;10219799;28;20228;-69
2023/06/15 20:46:36;;;;;;;5.93;3.90;;;23.10;50.90;;;;;;10232454;28;20233;-69
2023/06/15 20:51:37;;;;;;;11.00;3.90;;;23.10;50.80;;;;;;10219793;28;20228;-67
2023/06/15 20:56:38;;;;;;;9.20;4.60;;;23.00;51.10;;;;;;10226871;28;20228;-67
2023/06/15 21:01:39;;;;;;;8.63;4.37;;;22.90;51.20;;;;;;10222975;28;20240;-69
2023/06/15 21:06:39;;;;;;;5.87;4.50;;;22.80;51.10;;;;;;10228141;28;20208;-69
2023/06/15 21:11:40;;;;;;;6.30;3.90;;;22.80;51.70;;;;;;10226456;28;20228;-68
2023/06/15 21:16:40;;;;;;;10.27;4.73;;;22.60;51.90;;;;;;10223596;28;20709;-68
2023/06/15 21:21:41;;;;;;;5.53;4.10;;;22.50;52.00;;;;;;10220564;28;20233;-68
2023/06/15 21:26:44;;;;;;;8.53;4.70;;;22.30;52.50;;;;;;10217727;28;20226;-70
2023/06/15 21:31:45;;;;;;;8.03;4.93;;;22.10;53.40;;;;;;10228786;28;20281;-69
2023/06/15 21:36:47;;;;;;;7.53;4.70;;;21.90;54.10;;;;;;10220948;28;20753;-69
2023/06/15 21:41:47;;;;;;;12.20;5.43;;;21.70;55.10;;;;;;10229592;28;20231;-70
2023/06/15 21:46:48;;;;;;;8.13;5.07;;;21.40;56.20;;;;;;10219133;28;20228;-69
2023/06/15 21:51:50;;;;;;;8.53;4.70;;;21.30;57.90;;;;;;10230012;28;20273;-71
2023/06/15 21:56:50;;;;;;;7.13;4.40;;;21.00;58.30;;;;;;10223770;28;20231;-68
2023/06/15 22:01:51;;;;;;;9.37;4.70;;;20.90;59.40;;;;;;10221040;28;20234;-68
2023/06/15 22:06:51;;;;;;;5.13;4.10;;;20.70;60.30;;;;;;10224142;28;20613;-67
2023/06/15 22:11:52;;;;;;;9.60;4.93;;;20.50;61.20;;;;;;10222648;28;20220;-67
2023/06/15 22:16:53;;;;;;;9.23;4.53;;;20.40;62.30;;;;;;10225340;28;20227;-67
2023/06/15 22:21:53;;;;;;;5.73;4.40;;;20.30;62.90;;;;;;10219931;28;20658;-67
2023/06/15 22:26:54;;;;;;;4.77;4.13;;;20.10;64.30;;;;;;10232731;28;20291;-66
2023/06/15 22:31:55;;;;;;;4.87;4.03;;;20.00;64.50;;;;;;10233346;28;20568;-69
2023/06/15 22:36:55;;;;;;;6.90;4.40;;;19.90;64.10;;;;;;10234903;28;20219;-67
2023/06/15 22:41:56;;;;;;;5.67;3.77;;;19.80;63.60;;;;;;10228849;28;20315;-67
2023/06/15 22:46:58;;;;;;;6.43;4.40;;;19.70;66.40;;;;;;10234800;28;21019;-68
2023/06/15 22:51:58;;;;;;;5.77;4.53;;;19.60;66.80;;;;;;10231063;28;20254;-68
2023/06/15 22:56:59;;;;;;;5.87;4.30;;;19.40;67.50;;;;;;10224702;28;20258;-67
2023/06/15 23:02:00;;;;;;;5.00;4.47;;;19.30;67.60;;;;;;10227366;28;20919;-70
2023/06/15 23:07:03;;;;;;;7.10;4.40;;;19.30;67.90;;;;;;10231032;28;20216;-68
2023/06/15 23:12:09;;;;;;;5.47;4.33;;;19.10;68.80;;;;;;10236458;28;20310;-69
2023/06/15 23:17:10;;;;;;;4.63;4.17;;;19.10;69.00;;;;;;10236975;28;20228;-70
2023/06/15 23:22:11;;;;;;;6.00;4.50;;;19.00;69.50;;;;;;10234778;28;20223;-68
2023/06/15 23:27:11;;;;;;;5.13;4.50;;;18.90;70.40;;;;;;10222772;28;20302;-66
2023/06/15 23:32:12;;;;;;;5.73;4.27;;;18.90;71.10;;;;;;10226204;28;20223;-68
2023/06/15 23:37:13;;;;;;;6.13;4.93;;;18.80;71.20;;;;;;10228914;28;20307;-68
2023/06/15 23:42:13;;;;;;;7.27;4.63;;;18.70;71.00;;;;;;10235898;28;20219;-67
2023/06/15 23:47:14;;;;;;;6.13;4.50;;;18.60;71.20;;;;;;10221044;28;20216;-67
2023/06/15 23:52:15;;;;;;;6.70;4.57;;;18.50;71.50;;;;;;10226777;28;20224;-68
2023/06/15 23:57:17;;;;;;;5.27;4.20;;;18.50;72.00;;;;;;10226200;28;20240;-70
